createdAt,value
2022-09-03T00:03:09.272Z,27.64
2022-09-03T00:10:05.638Z,27.39
2022-09-03T00:16:57.275Z,27.40
2022-09-03T00:23:45.975Z,27.68
2022-09-03T00:30:35.651Z,28.13
2022-09-03T00:37:21.408Z,28.33
2022-09-03T00:44:33.220Z,27.97
2022-09-03T00:51:30.372Z,28.31
2022-09-03T00:58:48.557Z,28.44
2022-09-03T01:06:03.927Z,28.51
2022-09-03T01:13:00.324Z,28.69
2022-09-03T01:20:11.640Z,28.81
2022-09-03T01:27:18.462Z,28.84
2022-09-03T01:34:23.356Z,28.49
2022-09-03T01:41:35.096Z,28.89
2022-09-03T01:48:40.486Z,28.39
2022-09-03T01:55:36.586Z,28.81
2022-09-03T02:02:25.364Z,28.44
2022-09-03T02:09:11.378Z,28.90
2022-09-03T02:16:03.920Z,28.57
2022-09-03T02:22:50.714Z,29.03
2022-09-03T02:29:37.168Z,28.88
2022-09-03T02:36:32.448Z,29.46
2022-09-03T02:43:25.951Z,29.23
2022-09-03T03:04:02.943Z,29.50
2022-09-03T03:10:49.370Z,29.63
2022-09-03T03:17:34.839Z,29.70
2022-09-03T03:24:22.900Z,30.02
2022-09-03T03:31:12.219Z,29.56
2022-09-03T03:38:00.041Z,29.42
2022-09-03T03:44:49.191Z,29.83
2022-09-03T03:51:35.031Z,29.84
2022-09-03T03:58:20.480Z,30.05
2022-09-03T04:05:09.989Z,29.98
2022-09-03T04:11:57.942Z,30.30
2022-09-03T04:18:44.050Z,30.66
2022-09-03T04:25:32.404Z,30.50
2022-09-03T04:32:30.464Z,30.64
2022-09-03T04:39:15.934Z,30.71
2022-09-03T04:46:06.492Z,30.95
2022-09-03T04:52:52.504Z,30.62
2022-09-03T04:59:37.874Z,30.44
2022-09-03T05:06:26.311Z,30.88
2022-09-03T05:13:11.864Z,30.93
2022-09-03T05:19:57.421Z,30.84
2022-09-03T05:26:45.554Z,31.12
2022-09-03T05:33:31.780Z,31.50
2022-09-03T05:40:17.352Z,31.50
2022-09-03T05:47:05.396Z,32.11
2022-09-03T05:53:53.535Z,33.06
2022-09-03T06:00:39.476Z,34.21
2022-09-03T06:07:29.498Z,34.97
2022-09-03T06:14:17.622Z,36.45
2022-09-03T06:21:06.860Z,37.47
2022-09-03T06:27:54.971Z,37.02
2022-09-03T06:34:40.401Z,37.17
2022-09-03T06:41:29.358Z,37.23
2022-09-03T06:48:18.344Z,38.38
2022-09-03T06:55:03.820Z,38.22
2022-09-03T07:01:49.461Z,39.02
2022-09-03T07:08:38.657Z,38.04
2022-09-03T07:15:24.341Z,38.43
2022-09-03T07:22:10.449Z,38.59
2022-09-03T07:28:58.563Z,37.90
2022-09-03T07:35:44.044Z,38.47
2022-09-03T07:42:31.128Z,38.75
2022-09-03T07:49:20.271Z,40.34
2022-09-03T07:56:08.449Z,40.60
2022-09-03T08:02:56.658Z,40.85
2022-09-03T08:09:44.756Z,41.05
2022-09-03T08:16:31.554Z,41.42
2022-09-03T08:23:17.401Z,41.54
2022-09-03T08:30:07.904Z,41.52
2022-09-03T08:36:54.541Z,41.82
2022-09-03T08:44:13.693Z,42.68
2022-09-03T08:51:06.202Z,41.95
2022-09-03T08:58:00.327Z,42.42
2022-09-03T09:05:02.384Z,42.56
2022-09-03T09:12:07.731Z,42.06
2022-09-03T09:19:11.559Z,42.48
2022-09-03T09:26:00.334Z,42.98
2022-09-03T09:32:49.873Z,43.08
2022-09-03T09:39:35.712Z,42.91
2022-09-03T09:46:27.484Z,43.66
2022-09-03T09:53:21.737Z,43.23
2022-09-03T10:00:12.944Z,43.16
2022-09-03T10:07:00.018Z,42.72
2022-09-03T10:13:51.097Z,43.03
2022-09-03T10:20:44.492Z,42.86
2022-09-03T10:27:32.013Z,43.50
2022-09-03T10:34:37.240Z,43.18
2022-09-03T10:41:44.045Z,43.81
2022-09-03T10:49:04.532Z,43.32
2022-09-03T10:56:04.985Z,43.75
2022-09-03T11:03:24.201Z,43.60
2022-09-03T11:10:21.197Z,43.91
2022-09-03T11:17:18.693Z,44.06
2022-09-03T11:24:14.837Z,43.89
2022-09-03T11:31:21.477Z,43.75
2022-09-03T11:38:27.377Z,43.52
2022-09-03T11:45:25.998Z,43.57
2022-09-03T11:52:12.323Z,43.75
2022-09-03T11:59:21.302Z,43.57
2022-09-03T12:06:31.454Z,43.71
2022-09-03T12:13:40.488Z,43.82
2022-09-03T12:20:32.323Z,43.47
2022-09-03T12:27:25.124Z,43.22
2022-09-03T12:34:15.443Z,43.05
2022-09-03T12:41:23.525Z,43.04
2022-09-03T12:48:18.285Z,42.72
2022-09-03T12:55:07.889Z,42.59
2022-09-03T13:02:02.526Z,42.80
2022-09-03T13:08:52.152Z,42.42
2022-09-03T13:15:37.675Z,42.30
2022-09-03T13:22:36.095Z,42.44
2022-09-03T13:29:49.426Z,42.29
2022-09-03T13:36:48.182Z,41.41
2022-09-03T13:43:42.621Z,41.47
2022-09-03T13:50:28.872Z,41.69
2022-09-03T13:57:33.821Z,41.33
2022-09-03T14:04:31.098Z,40.73
2022-09-03T14:11:29.326Z,40.90
2022-09-03T14:18:26.750Z,41.07
2022-09-03T14:25:22.816Z,40.69
2022-09-03T14:32:41.216Z,40.41
2022-09-03T14:39:37.127Z,40.15
2022-09-03T14:46:42.500Z,40.54
2022-09-03T14:53:55.776Z,40.32
2022-09-03T15:00:56.693Z,40.33
2022-09-03T15:07:53.721Z,40.21
2022-09-03T15:14:49.389Z,39.91
2022-09-03T15:21:54.605Z,40.39
2022-09-03T15:29:06.781Z,40.49
2022-09-03T15:36:15.127Z,40.65
2022-09-03T15:43:09.788Z,40.85
2022-09-03T15:50:06.332Z,40.82
2022-09-03T15:56:57.500Z,40.39
2022-09-03T16:03:56.136Z,40.56
2022-09-03T16:11:06.425Z,40.57
2022-09-03T16:18:00.563Z,40.80
2022-09-03T16:24:54.137Z,40.85
2022-09-03T16:32:00.603Z,40.43
2022-09-03T16:38:55.409Z,40.98
2022-09-03T16:45:55.216Z,41.14
2022-09-03T16:53:02.977Z,41.22
2022-09-03T17:00:12.222Z,41.92
2022-09-03T17:07:20.220Z,42.35
2022-09-03T17:14:28.973Z,42.58
2022-09-03T17:21:29.897Z,42.12
2022-09-03T17:28:31.546Z,42.38
2022-09-03T17:35:25.017Z,41.97
2022-09-03T17:42:20.495Z,41.35
2022-09-03T17:49:10.321Z,41.44
2022-09-03T17:56:04.125Z,41.44
2022-09-03T18:03:01.093Z,41.29
2022-09-03T18:09:58.965Z,41.27
2022-09-03T18:16:56.106Z,41.64
2022-09-03T18:24:09.957Z,41.64
2022-09-03T18:31:08.010Z,41.95
2022-09-03T18:38:08.968Z,41.52
2022-09-03T18:45:21.836Z,41.93
2022-09-03T18:52:30.721Z,42.03
2022-09-03T18:59:58.537Z,42.12
2022-09-03T19:07:10.241Z,42.08
2022-09-03T19:14:08.363Z,42.21
2022-09-03T19:21:21.595Z,41.99
2022-09-03T19:28:38.905Z,42.16
2022-09-03T19:35:45.052Z,41.86
2022-09-03T19:43:02.600Z,42.52
2022-09-03T19:50:14.068Z,42.29
2022-09-03T19:57:13.917Z,42.33
2022-09-03T20:04:19.757Z,42.69
2022-09-03T20:11:08.257Z,42.54
2022-09-03T20:18:04.885Z,42.43
2022-09-03T20:25:10.613Z,42.76
2022-09-03T20:32:04.865Z,42.66
2022-09-03T20:39:28.314Z,42.76
2022-09-03T20:46:51.193Z,42.87
2022-09-03T20:54:02.200Z,42.88
2022-09-03T21:00:54.672Z,42.95
2022-09-03T21:07:59.224Z,42.85
2022-09-03T21:14:52.053Z,43.10
2022-09-03T21:21:50.927Z,43.45
2022-09-03T21:28:44.413Z,43.38
2022-09-03T21:35:34.088Z,43.94
2022-09-03T21:42:27.257Z,43.75
2022-09-03T21:49:20.630Z,44.27
2022-09-03T21:56:41.384Z,43.88
2022-09-03T22:03:26.966Z,44.23
2022-09-03T22:10:24.180Z,43.90
2022-09-03T22:17:19.039Z,44.13
2022-09-03T22:24:22.986Z,44.13
2022-09-03T22:31:20.786Z,44.50
2022-09-03T22:38:35.929Z,44.41
2022-09-03T22:45:51.011Z,44.26
2022-09-03T22:52:47.329Z,44.33
2022-09-03T22:59:39.977Z,44.88
2022-09-03T23:06:32.625Z,44.92
2022-09-03T23:13:25.372Z,44.37
2022-09-03T23:20:18.025Z,44.65
2022-09-03T23:27:10.077Z,44.59
2022-09-03T23:33:58.446Z,44.79
2022-09-03T23:40:51.782Z,45.05
2022-09-03T23:47:45.849Z,45.08
2022-09-03T23:54:43.310Z,44.78
